Aviation Digital Data Service (ADDS)

Output produced by TAFs form (2113 UTC 02 September 2014)
found at http://aviationweather.gov/adds/tafs/
 
KGUP 021734Z 0218/0318 24010KT P6SM SCT250 
     TEMPO 0221/0301 24010G19KT 
     FM030100 23009KT P6SM SKC 
     FM030400 VRB04KT P6SM SKC